首页
METAR-TAF:

METAR-TAF

机场 :

莱克兰, 佛罗里达州, 美国

纬度: 27-59N, 经度: 082-01W, 海拔: 43米

当前天气观测

该预报发布于2小时和2分钟前的05:50 UTC
静风
温度 26°C
湿度 79%
气压 1015 hPa
能見度: 16.1公里
天空无云

METAR: KLAL 150550Z 00000KT 10SM SKC 26/22 A2998

时间: 03:52 (07:52 UTC)

预报

该预报发布于2小时和20分钟前的05:32 UTC
预报有效从15日的 06点(UTC)到 16日的 06点(UTC)
风速节,风向
能見度: 10公里
少量云层高于3500英尺
散云层高于25000英尺
从 15日的 1400点(UTC)
风速5节,风向西转西南
能見度: 10公里
散云层高于3500英尺
散云层高于25000英尺
从 15日的 1700点(UTC)
风速7节,风向西
能見度: 10公里
散云层高于4000英尺, 积雨云.
多云层高于25000英尺
附近有雷暴
从 16日的 0100点(UTC)
风速3节,风向多变
能見度: 10公里
散云层高于10000英尺
多云层高于25000英尺

TAF: KLAL 150532Z 1506/1606 00000KT P6SM FEW035 SCT250 FM151400 24005KT P6SM SCT035 SCT250 FM151700 26007KT P6SM VCTS SCT040CB BKN250 FM160100 VRB03KT P6SM SCT100 BKN250

超过4000个机场的气象观测和天气预报(METAR&TAF报告)。

可查询的气象台以黄色和红色小点在地图上表示。

将鼠标移到小点上方,可查看气象台名称。

然后点击查看天气观测和预报。

如需切换地图:点击带黑十字的绿色按钮放大地图;点击带横线的绿色按钮缩小地图;或者点击绿色箭头查看邻近地区的地图。


METAR-TAF: